sensor_id;sensor_type;location;lat;lon;timestamp;P1;durP1;ratioP1;P2;durP2;ratioP2
25123;SDS011;13104;51.030;4.686;2024-01-30T00:02:11;4.90;;;1.92;;
25123;SDS011;13104;51.030;4.686;2024-01-30T00:04:37;2.40;;;1.60;;
25123;SDS011;13104;51.030;4.686;2024-01-30T00:07:03;4.43;;;2.15;;
25123;SDS011;13104;51.030;4.686;2024-01-30T00:09:29;3.25;;;1.92;;
25123;SDS011;13104;51.030;4.686;2024-01-30T00:11:56;3.65;;;1.80;;
25123;SDS011;13104;51.030;4.686;2024-01-30T00:14:22;2.58;;;1.70;;
25123;SDS011;13104;51.030;4.686;2024-01-30T00:16:48;4.32;;;1.42;;
25123;SDS011;13104;51.030;4.686;2024-01-30T00:19:14;12.98;;;1.52;;
25123;SDS011;13104;51.030;4.686;2024-01-30T00:21:40;4.15;;;1.88;;
25123;SDS011;13104;51.030;4.686;2024-01-30T00:24:06;1.83;;;1.48;;
25123;SDS011;13104;51.030;4.686;2024-01-30T00:26:32;2.05;;;1.70;;
25123;SDS011;13104;51.030;4.686;2024-01-30T00:28:59;9.35;;;1.77;;
25123;SDS011;13104;51.030;4.686;2024-01-30T00:31:25;4.13;;;2.20;;
25123;SDS011;13104;51.030;4.686;2024-01-30T00:33:51;2.35;;;1.60;;
25123;SDS011;13104;51.030;4.686;2024-01-30T00:36:17;3.63;;;1.92;;
25123;SDS011;13104;51.030;4.686;2024-01-30T00:38:43;2.28;;;1.42;;
25123;SDS011;13104;51.030;4.686;2024-01-30T00:41:09;3.05;;;1.75;;
25123;SDS011;13104;51.030;4.686;2024-01-30T00:43:36;2.00;;;1.75;;
25123;SDS011;13104;51.030;4.686;2024-01-30T00:46:02;4.43;;;1.90;;
25123;SDS011;13104;51.030;4.686;2024-01-30T00:48:28;4.18;;;2.20;;
25123;SDS011;13104;51.030;4.686;2024-01-30T00:50:55;7.30;;;1.73;;
25123;SDS011;13104;51.030;4.686;2024-01-30T00:53:21;2.03;;;1.35;;
25123;SDS011;13104;51.030;4.686;2024-01-30T00:55:47;4.80;;;1.88;;
25123;SDS011;13104;51.030;4.686;2024-01-30T00:58:13;2.22;;;1.33;;
25123;SDS011;13104;51.030;4.686;2024-01-30T01:00:39;4.40;;;1.95;;
25123;SDS011;13104;51.030;4.686;2024-01-30T01:03:05;2.78;;;1.90;;
25123;SDS011;13104;51.030;4.686;2024-01-30T01:05:31;3.92;;;1.65;;
25123;SDS011;13104;51.030;4.686;2024-01-30T01:07:57;2.90;;;1.20;;
25123;SDS011;13104;51.030;4.686;2024-01-30T01:10:24;2.83;;;1.38;;
25123;SDS011;13104;51.030;4.686;2024-01-30T01:12:50;5.22;;;1.50;;
25123;SDS011;13104;51.030;4.686;2024-01-30T01:15:16;2.80;;;1.42;;
25123;SDS011;13104;51.030;4.686;2024-01-30T01:17:42;5.10;;;1.67;;
25123;SDS011;13104;51.030;4.686;2024-01-30T01:20:08;6.13;;;1.58;;
25123;SDS011;13104;51.030;4.686;2024-01-30T01:22:35;1.00;;;0.98;;
25123;SDS011;13104;51.030;4.686;2024-01-30T01:25:03;5.85;;;1.45;;
25123;SDS011;13104;51.030;4.686;2024-01-30T01:27:32;2.83;;;1.95;;
25123;SDS011;13104;51.030;4.686;2024-01-30T01:29:59;2.45;;;1.83;;
25123;SDS011;13104;51.030;4.686;2024-01-30T01:32:25;2.13;;;1.40;;
25123;SDS011;13104;51.030;4.686;2024-01-30T01:34:52;2.35;;;1.67;;
25123;SDS011;13104;51.030;4.686;2024-01-30T01:37:19;2.47;;;1.70;;
25123;SDS011;13104;51.030;4.686;2024-01-30T01:39:47;3.55;;;1.50;;
25123;SDS011;13104;51.030;4.686;2024-01-30T01:42:13;3.63;;;1.63;;
25123;SDS011;13104;51.030;4.686;2024-01-30T01:44:39;3.70;;;1.63;;
25123;SDS011;13104;51.030;4.686;2024-01-30T01:47:05;2.45;;;1.45;;
25123;SDS011;13104;51.030;4.686;2024-01-30T01:49:31;2.42;;;1.55;;
25123;SDS011;13104;51.030;4.686;2024-01-30T01:51:58;2.35;;;1.55;;
25123;SDS011;13104;51.030;4.686;2024-01-30T01:54:25;5.13;;;1.75;;
25123;SDS011;13104;51.030;4.686;2024-01-30T01:56:52;4.93;;;1.50;;
25123;SDS011;13104;51.030;4.686;2024-01-30T01:59:18;2.55;;;1.23;;
25123;SDS011;13104;51.030;4.686;2024-01-30T02:01:45;1.50;;;1.10;;
25123;SDS011;13104;51.030;4.686;2024-01-30T02:04:14;1.65;;;1.33;;
25123;SDS011;13104;51.030;4.686;2024-01-30T02:06:40;2.97;;;1.35;;
25123;SDS011;13104;51.030;4.686;2024-01-30T02:09:06;2.40;;;1.80;;
25123;SDS011;13104;51.030;4.686;2024-01-30T02:11:34;3.45;;;1.42;;
25123;SDS011;13104;51.030;4.686;2024-01-30T02:14:04;2.92;;;1.35;;
25123;SDS011;13104;51.030;4.686;2024-01-30T02:16:30;3.25;;;1.15;;
25123;SDS011;13104;51.030;4.686;2024-01-30T02:18:56;1.77;;;1.25;;
25123;SDS011;13104;51.030;4.686;2024-01-30T02:21:22;1.38;;;0.98;;
25123;SDS011;13104;51.030;4.686;2024-01-30T02:23:49;4.20;;;1.40;;
25123;SDS011;13104;51.030;4.686;2024-01-30T02:26:15;4.38;;;1.70;;
25123;SDS011;13104;51.030;4.686;2024-01-30T02:28:41;1.88;;;1.30;;
25123;SDS011;13104;51.030;4.686;2024-01-30T02:31:07;1.70;;;1.10;;
25123;SDS011;13104;51.030;4.686;2024-01-30T02:33:33;2.67;;;1.40;;
25123;SDS011;13104;51.030;4.686;2024-01-30T02:35:59;2.63;;;1.55;;
25123;SDS011;13104;51.030;4.686;2024-01-30T02:38:26;2.47;;;1.42;;
25123;SDS011;13104;51.030;4.686;2024-01-30T02:40:52;1.25;;;1.08;;
25123;SDS011;13104;51.030;4.686;2024-01-30T02:43:18;2.35;;;1.13;;
25123;SDS011;13104;51.030;4.686;2024-01-30T02:45:44;3.13;;;1.15;;
25123;SDS011;13104;51.030;4.686;2024-01-30T02:48:10;2.15;;;1.45;;
25123;SDS011;13104;51.030;4.686;2024-01-30T02:50:36;2.13;;;1.20;;
25123;SDS011;13104;51.030;4.686;2024-01-30T02:53:03;1.77;;;1.42;;
25123;SDS011;13104;51.030;4.686;2024-01-30T02:55:29;2.15;;;1.30;;
25123;SDS011;13104;51.030;4.686;2024-01-30T02:57:55;1.52;;;1.23;;
25123;SDS011;13104;51.030;4.686;2024-01-30T03:00:21;2.55;;;1.52;;
25123;SDS011;13104;51.030;4.686;2024-01-30T03:02:47;3.85;;;1.45;;
25123;SDS011;13104;51.030;4.686;2024-01-30T03:05:13;2.25;;;1.23;;
25123;SDS011;13104;51.030;4.686;2024-01-30T03:07:39;1.63;;;1.25;;
25123;SDS011;13104;51.030;4.686;2024-01-30T03:10:05;1.48;;;1.33;;
25123;SDS011;13104;51.030;4.686;2024-01-30T03:12:32;2.30;;;1.67;;
25123;SDS011;13104;51.030;4.686;2024-01-30T03:14:58;2.90;;;1.50;;
25123;SDS011;13104;51.030;4.686;2024-01-30T03:17:24;1.65;;;1.27;;
25123;SDS011;13104;51.030;4.686;2024-01-30T03:19:50;2.95;;;1.48;;
25123;SDS011;13104;51.030;4.686;2024-01-30T03:22:17;3.45;;;1.52;;
25123;SDS011;13104;51.030;4.686;2024-01-30T03:24:43;2.15;;;1.48;;
25123;SDS011;13104;51.030;4.686;2024-01-30T03:27:09;1.73;;;1.27;;
25123;SDS011;13104;51.030;4.686;2024-01-30T03:29:35;4.85;;;1.55;;
25123;SDS011;13104;51.030;4.686;2024-01-30T03:32:01;3.17;;;1.40;;
25123;SDS011;13104;51.030;4.686;2024-01-30T03:34:29;3.63;;;1.15;;
25123;SDS011;13104;51.030;4.686;2024-01-30T03:36:55;1.67;;;1.23;;
25123;SDS011;13104;51.030;4.686;2024-01-30T03:39:21;1.58;;;1.15;;
25123;SDS011;13104;51.030;4.686;2024-01-30T03:41:47;2.30;;;1.38;;
25123;SDS011;13104;51.030;4.686;2024-01-30T03:44:13;3.03;;;1.55;;
25123;SDS011;13104;51.030;4.686;2024-01-30T03:46:39;1.65;;;1.15;;
25123;SDS011;13104;51.030;4.686;2024-01-30T03:49:05;1.40;;;1.13;;
25123;SDS011;13104;51.030;4.686;2024-01-30T03:51:31;2.03;;;1.55;;
25123;SDS011;13104;51.030;4.686;2024-01-30T03:53:57;2.35;;;1.55;;
25123;SDS011;13104;51.030;4.686;2024-01-30T03:56:24;2.20;;;0.93;;
25123;SDS011;13104;51.030;4.686;2024-01-30T03:58:50;1.77;;;1.20;;
25123;SDS011;13104;51.030;4.686;2024-01-30T04:01:17;1.60;;;1.40;;
25123;SDS011;13104;51.030;4.686;2024-01-30T04:03:43;3.53;;;1.40;;
25123;SDS011;13104;51.030;4.686;2024-01-30T04:06:09;2.15;;;1.42;;
25123;SDS011;13104;51.030;4.686;2024-01-30T04:08:36;2.88;;;1.63;;
25123;SDS011;13104;51.030;4.686;2024-01-30T04:11:03;2.70;;;1.10;;
25123;SDS011;13104;51.030;4.686;2024-01-30T04:13:30;1.52;;;1.20;;
25123;SDS011;13104;51.030;4.686;2024-01-30T04:15:56;1.52;;;1.27;;
25123;SDS011;13104;51.030;4.686;2024-01-30T04:18:23;1.60;;;1.23;;
25123;SDS011;13104;51.030;4.686;2024-01-30T04:20:49;1.20;;;0.90;;
25123;SDS011;13104;51.030;4.686;2024-01-30T04:23:15;1.88;;;1.35;;
25123;SDS011;13104;51.030;4.686;2024-01-30T04:25:41;2.22;;;1.30;;
25123;SDS011;13104;51.030;4.686;2024-01-30T04:28:07;4.88;;;1.40;;
25123;SDS011;13104;51.030;4.686;2024-01-30T04:30:33;2.05;;;0.98;;
25123;SDS011;13104;51.030;4.686;2024-01-30T04:32:59;2.58;;;1.95;;
25123;SDS011;13104;51.030;4.686;2024-01-30T04:35:25;1.33;;;1.13;;
25123;SDS011;13104;51.030;4.686;2024-01-30T04:37:52;1.80;;;1.38;;
25123;SDS011;13104;51.030;4.686;2024-01-30T04:40:19;2.80;;;1.35;;
25123;SDS011;13104;51.030;4.686;2024-01-30T04:42:45;2.10;;;1.35;;
25123;SDS011;13104;51.030;4.686;2024-01-30T04:45:11;1.58;;;1.13;;
25123;SDS011;13104;51.030;4.686;2024-01-30T04:47:37;1.25;;;1.10;;
25123;SDS011;13104;51.030;4.686;2024-01-30T04:50:06;1.65;;;1.08;;
25123;SDS011;13104;51.030;4.686;2024-01-30T04:52:33;2.40;;;1.38;;
25123;SDS011;13104;51.030;4.686;2024-01-30T04:54:59;3.33;;;1.70;;
25123;SDS011;13104;51.030;4.686;2024-01-30T04:57:25;9.20;;;1.65;;
25123;SDS011;13104;51.030;4.686;2024-01-30T04:59:52;2.53;;;1.20;;
25123;SDS011;13104;51.030;4.686;2024-01-30T05:02:18;1.75;;;1.40;;
25123;SDS011;13104;51.030;4.686;2024-01-30T05:04:44;1.40;;;1.30;;
25123;SDS011;13104;51.030;4.686;2024-01-30T05:07:10;1.77;;;1.58;;
25123;SDS011;13104;51.030;4.686;2024-01-30T05:09:36;4.88;;;1.58;;
25123;SDS011;13104;51.030;4.686;2024-01-30T05:12:02;2.08;;;1.27;;
25123;SDS011;13104;51.030;4.686;2024-01-30T05:14:28;2.22;;;1.13;;
25123;SDS011;13104;51.030;4.686;2024-01-30T05:16:54;1.85;;;1.42;;
25123;SDS011;13104;51.030;4.686;2024-01-30T05:19:20;3.33;;;1.58;;
25123;SDS011;13104;51.030;4.686;2024-01-30T05:21:48;1.67;;;1.10;;
25123;SDS011;13104;51.030;4.686;2024-01-30T05:24:14;1.85;;;1.27;;
25123;SDS011;13104;51.030;4.686;2024-01-30T05:26:40;7.15;;;1.60;;
25123;SDS011;13104;51.030;4.686;2024-01-30T05:29:06;1.77;;;1.10;;
25123;SDS011;13104;51.030;4.686;2024-01-30T05:31:33;3.95;;;1.60;;
25123;SDS011;13104;51.030;4.686;2024-01-30T05:33:59;1.80;;;1.40;;
25123;SDS011;13104;51.030;4.686;2024-01-30T05:36:26;1.70;;;1.30;;
25123;SDS011;13104;51.030;4.686;2024-01-30T05:38:52;1.70;;;1.38;;
25123;SDS011;13104;51.030;4.686;2024-01-30T05:41:18;3.63;;;1.40;;
25123;SDS011;13104;51.030;4.686;2024-01-30T05:43:44;2.53;;;1.40;;
25123;SDS011;13104;51.030;4.686;2024-01-30T05:46:10;1.88;;;1.35;;
25123;SDS011;13104;51.030;4.686;2024-01-30T05:48:36;2.22;;;1.58;;
25123;SDS011;13104;51.030;4.686;2024-01-30T05:51:02;5.20;;;1.30;;
25123;SDS011;13104;51.030;4.686;2024-01-30T05:53:29;1.67;;;1.08;;
25123;SDS011;13104;51.030;4.686;2024-01-30T05:55:55;1.42;;;1.33;;
25123;SDS011;13104;51.030;4.686;2024-01-30T05:58:21;3.45;;;1.52;;
25123;SDS011;13104;51.030;4.686;2024-01-30T06:00:47;1.60;;;1.35;;
25123;SDS011;13104;51.030;4.686;2024-01-30T06:03:13;1.80;;;1.52;;
25123;SDS011;13104;51.030;4.686;2024-01-30T06:05:39;3.15;;;1.52;;
25123;SDS011;13104;51.030;4.686;2024-01-30T06:08:05;2.10;;;1.50;;
25123;SDS011;13104;51.030;4.686;2024-01-30T06:10:32;2.03;;;1.50;;
25123;SDS011;13104;51.030;4.686;2024-01-30T06:12:58;2.45;;;1.33;;
25123;SDS011;13104;51.030;4.686;2024-01-30T06:15:24;2.00;;;1.38;;
25123;SDS011;13104;51.030;4.686;2024-01-30T06:17:51;1.92;;;1.50;;
25123;SDS011;13104;51.030;4.686;2024-01-30T06:20:17;3.40;;;1.85;;
25123;SDS011;13104;51.030;4.686;2024-01-30T06:22:43;1.55;;;1.45;;
25123;SDS011;13104;51.030;4.686;2024-01-30T06:25:09;5.03;;;1.20;;
25123;SDS011;13104;51.030;4.686;2024-01-30T06:27:37;2.67;;;1.63;;
25123;SDS011;13104;51.030;4.686;2024-01-30T06:30:04;2.30;;;1.50;;
25123;SDS011;13104;51.030;4.686;2024-01-30T06:32:30;2.05;;;1.15;;
25123;SDS011;13104;51.030;4.686;2024-01-30T06:34:59;2.42;;;1.63;;
25123;SDS011;13104;51.030;4.686;2024-01-30T06:37:25;1.83;;;1.30;;
25123;SDS011;13104;51.030;4.686;2024-01-30T06:39:52;3.05;;;1.17;;
25123;SDS011;13104;51.030;4.686;2024-01-30T06:42:18;2.75;;;1.48;;
25123;SDS011;13104;51.030;4.686;2024-01-30T06:44:44;2.42;;;1.80;;
25123;SDS011;13104;51.030;4.686;2024-01-30T06:47:10;3.85;;;1.80;;
25123;SDS011;13104;51.030;4.686;2024-01-30T06:49:36;2.20;;;1.42;;
25123;SDS011;13104;51.030;4.686;2024-01-30T06:52:07;1.52;;;1.42;;
25123;SDS011;13104;51.030;4.686;2024-01-30T06:54:33;8.52;;;1.45;;
25123;SDS011;13104;51.030;4.686;2024-01-30T06:56:59;2.05;;;1.52;;
25123;SDS011;13104;51.030;4.686;2024-01-30T06:59:25;2.88;;;1.33;;
25123;SDS011;13104;51.030;4.686;2024-01-30T07:01:51;1.35;;;1.25;;
25123;SDS011;13104;51.030;4.686;2024-01-30T07:04:17;2.50;;;1.65;;
25123;SDS011;13104;51.030;4.686;2024-01-30T07:06:44;3.10;;;1.80;;
25123;SDS011;13104;51.030;4.686;2024-01-30T07:09:10;2.53;;;1.67;;
25123;SDS011;13104;51.030;4.686;2024-01-30T07:11:36;3.15;;;1.85;;
25123;SDS011;13104;51.030;4.686;2024-01-30T07:14:02;1.63;;;1.25;;
25123;SDS011;13104;51.030;4.686;2024-01-30T07:16:31;2.20;;;1.50;;
25123;SDS011;13104;51.030;4.686;2024-01-30T07:18:57;1.58;;;1.40;;
25123;SDS011;13104;51.030;4.686;2024-01-30T07:21:23;2.33;;;1.60;;
25123;SDS011;13104;51.030;4.686;2024-01-30T07:23:56;3.05;;;1.73;;
25123;SDS011;13104;51.030;4.686;2024-01-30T07:26:22;1.75;;;1.38;;
25123;SDS011;13104;51.030;4.686;2024-01-30T07:28:49;2.15;;;1.90;;
25123;SDS011;13104;51.030;4.686;2024-01-30T07:31:15;3.40;;;1.88;;
25123;SDS011;13104;51.030;4.686;2024-01-30T07:33:41;3.38;;;1.90;;
25123;SDS011;13104;51.030;4.686;2024-01-30T07:36:07;2.38;;;1.60;;
25123;SDS011;13104;51.030;4.686;2024-01-30T07:38:33;3.28;;;1.50;;
25123;SDS011;13104;51.030;4.686;2024-01-30T07:41:00;5.80;;;1.58;;
25123;SDS011;13104;51.030;4.686;2024-01-30T07:43:26;2.45;;;1.30;;
25123;SDS011;13104;51.030;4.686;2024-01-30T07:45:52;2.45;;;1.45;;
25123;SDS011;13104;51.030;4.686;2024-01-30T07:48:18;2.75;;;1.65;;
25123;SDS011;13104;51.030;4.686;2024-01-30T07:50:44;3.00;;;1.58;;
25123;SDS011;13104;51.030;4.686;2024-01-30T07:53:10;2.58;;;1.38;;
25123;SDS011;13104;51.030;4.686;2024-01-30T07:55:37;1.85;;;1.63;;
25123;SDS011;13104;51.030;4.686;2024-01-30T07:58:03;1.83;;;1.17;;
25123;SDS011;13104;51.030;4.686;2024-01-30T08:00:30;3.08;;;1.95;;
25123;SDS011;13104;51.030;4.686;2024-01-30T08:02:56;3.00;;;1.90;;
25123;SDS011;13104;51.030;4.686;2024-01-30T08:05:23;1.88;;;1.40;;
25123;SDS011;13104;51.030;4.686;2024-01-30T08:07:50;3.25;;;2.05;;
25123;SDS011;13104;51.030;4.686;2024-01-30T08:10:16;2.03;;;1.45;;
25123;SDS011;13104;51.030;4.686;2024-01-30T08:12:45;2.25;;;1.80;;
25123;SDS011;13104;51.030;4.686;2024-01-30T08:15:11;3.22;;;1.65;;
25123;SDS011;13104;51.030;4.686;2024-01-30T08:17:38;2.15;;;1.50;;
25123;SDS011;13104;51.030;4.686;2024-01-30T08:20:04;2.60;;;1.75;;
25123;SDS011;13104;51.030;4.686;2024-01-30T08:22:30;1.60;;;1.23;;
25123;SDS011;13104;51.030;4.686;2024-01-30T08:24:57;2.25;;;1.65;;
25123;SDS011;13104;51.030;4.686;2024-01-30T08:27:23;2.17;;;1.67;;
25123;SDS011;13104;51.030;4.686;2024-01-30T08:29:49;2.38;;;1.50;;
25123;SDS011;13104;51.030;4.686;2024-01-30T08:32:15;1.65;;;1.55;;
25123;SDS011;13104;51.030;4.686;2024-01-30T08:34:41;2.38;;;1.67;;
25123;SDS011;13104;51.030;4.686;2024-01-30T08:37:08;3.22;;;1.48;;
25123;SDS011;13104;51.030;4.686;2024-01-30T08:39:34;2.17;;;1.35;;
25123;SDS011;13104;51.030;4.686;2024-01-30T08:42:00;3.25;;;1.38;;
25123;SDS011;13104;51.030;4.686;2024-01-30T08:44:26;2.38;;;1.50;;
25123;SDS011;13104;51.030;4.686;2024-01-30T08:46:52;3.38;;;1.58;;
25123;SDS011;13104;51.030;4.686;2024-01-30T08:49:19;3.80;;;2.00;;
25123;SDS011;13104;51.030;4.686;2024-01-30T08:51:46;2.90;;;1.70;;
25123;SDS011;13104;51.030;4.686;2024-01-30T08:54:12;2.20;;;1.52;;
25123;SDS011;13104;51.030;4.686;2024-01-30T08:56:38;1.60;;;1.17;;
25123;SDS011;13104;51.030;4.686;2024-01-30T08:59:04;3.78;;;1.85;;
25123;SDS011;13104;51.030;4.686;2024-01-30T09:01:30;1.58;;;1.10;;
25123;SDS011;13104;51.030;4.686;2024-01-30T09:03:57;7.00;;;1.65;;
25123;SDS011;13104;51.030;4.686;2024-01-30T09:06:23;3.63;;;1.95;;
25123;SDS011;13104;51.030;4.686;2024-01-30T09:08:51;2.95;;;1.50;;
25123;SDS011;13104;51.030;4.686;2024-01-30T09:11:17;2.50;;;1.80;;
25123;SDS011;13104;51.030;4.686;2024-01-30T09:13:44;3.08;;;1.58;;
25123;SDS011;13104;51.030;4.686;2024-01-30T09:16:10;2.35;;;1.60;;
25123;SDS011;13104;51.030;4.686;2024-01-30T09:18:36;2.20;;;1.45;;
25123;SDS011;13104;51.030;4.686;2024-01-30T09:21:02;3.58;;;1.70;;
25123;SDS011;13104;51.030;4.686;2024-01-30T09:23:28;1.40;;;1.17;;
25123;SDS011;13104;51.030;4.686;2024-01-30T09:25:55;3.67;;;1.42;;
25123;SDS011;13104;51.030;4.686;2024-01-30T09:28:21;13.82;;;1.95;;
25123;SDS011;13104;51.030;4.686;2024-01-30T09:30:47;3.53;;;1.80;;
25123;SDS011;13104;51.030;4.686;2024-01-30T09:33:13;3.10;;;1.33;;
25123;SDS011;13104;51.030;4.686;2024-01-30T09:35:39;1.58;;;1.25;;
25123;SDS011;13104;51.030;4.686;2024-01-30T09:38:05;2.35;;;1.55;;
25123;SDS011;13104;51.030;4.686;2024-01-30T09:40:32;5.85;;;2.10;;
25123;SDS011;13104;51.030;4.686;2024-01-30T09:42:58;1.70;;;1.45;;
25123;SDS011;13104;51.030;4.686;2024-01-30T09:45:27;1.48;;;1.38;;
25123;SDS011;13104;51.030;4.686;2024-01-30T09:47:53;4.72;;;1.80;;
25123;SDS011;13104;51.030;4.686;2024-01-30T09:50:19;3.47;;;1.83;;
25123;SDS011;13104;51.030;4.686;2024-01-30T09:52:46;3.10;;;1.63;;
25123;SDS011;13104;51.030;4.686;2024-01-30T09:55:12;4.07;;;1.88;;
25123;SDS011;13104;51.030;4.686;2024-01-30T09:57:39;1.15;;;1.00;;
25123;SDS011;13104;51.030;4.686;2024-01-30T10:00:05;4.88;;;2.10;;
25123;SDS011;13104;51.030;4.686;2024-01-30T10:02:35;4.50;;;2.30;;
25123;SDS011;13104;51.030;4.686;2024-01-30T10:05:01;1.73;;;1.52;;
25123;SDS011;13104;51.030;4.686;2024-01-30T10:07:27;4.25;;;1.98;;
25123;SDS011;13104;51.030;4.686;2024-01-30T10:09:55;2.83;;;1.90;;
25123;SDS011;13104;51.030;4.686;2024-01-30T10:12:21;3.15;;;1.70;;
25123;SDS011;13104;51.030;4.686;2024-01-30T10:14:48;2.63;;;1.77;;
25123;SDS011;13104;51.030;4.686;2024-01-30T10:17:14;9.63;;;2.53;;
25123;SDS011;13104;51.030;4.686;2024-01-30T10:19:40;2.40;;;1.98;;
25123;SDS011;13104;51.030;4.686;2024-01-30T10:22:07;3.72;;;2.15;;
25123;SDS011;13104;51.030;4.686;2024-01-30T10:24:33;7.20;;;2.47;;
25123;SDS011;13104;51.030;4.686;2024-01-30T10:27:00;2.83;;;1.80;;
25123;SDS011;13104;51.030;4.686;2024-01-30T10:29:27;4.05;;;1.90;;
25123;SDS011;13104;51.030;4.686;2024-01-30T10:32:03;4.22;;;2.08;;
25123;SDS011;13104;51.030;4.686;2024-01-30T10:34:29;2.97;;;1.92;;
25123;SDS011;13104;51.030;4.686;2024-01-30T10:37:07;9.27;;;2.58;;
25123;SDS011;13104;51.030;4.686;2024-01-30T10:39:38;5.88;;;1.95;;
25123;SDS011;13104;51.030;4.686;2024-01-30T10:42:04;3.45;;;2.08;;
25123;SDS011;13104;51.030;4.686;2024-01-30T10:44:46;5.47;;;2.40;;
25123;SDS011;13104;51.030;4.686;2024-01-30T10:47:14;3.72;;;1.92;;
25123;SDS011;13104;51.030;4.686;2024-01-30T10:49:44;4.78;;;2.25;;
25123;SDS011;13104;51.030;4.686;2024-01-30T10:52:11;2.58;;;1.90;;
25123;SDS011;13104;51.030;4.686;2024-01-30T10:54:40;2.22;;;1.92;;
25123;SDS011;13104;51.030;4.686;2024-01-30T10:57:06;5.60;;;2.50;;
25123;SDS011;13104;51.030;4.686;2024-01-30T10:59:33;8.65;;;2.33;;
25123;SDS011;13104;51.030;4.686;2024-01-30T11:02:00;5.30;;;2.58;;
25123;SDS011;13104;51.030;4.686;2024-01-30T11:04:26;4.47;;;2.63;;
25123;SDS011;13104;51.030;4.686;2024-01-30T11:06:52;2.90;;;2.22;;
25123;SDS011;13104;51.030;4.686;2024-01-30T11:09:19;3.28;;;2.00;;
25123;SDS011;13104;51.030;4.686;2024-01-30T11:14:15;2.35;;;1.75;;
25123;SDS011;13104;51.030;4.686;2024-01-30T11:16:41;7.40;;;1.65;;
25123;SDS011;13104;51.030;4.686;2024-01-30T11:19:10;1.48;;;1.15;;
25123;SDS011;13104;51.030;4.686;2024-01-30T11:21:43;0.80;;;0.80;;
25123;SDS011;13104;51.030;4.686;2024-01-30T11:24:09;0.70;;;0.60;;
25123;SDS011;13104;51.030;4.686;2024-01-30T11:26:36;0.68;;;0.68;;
25123;SDS011;13104;51.030;4.686;2024-01-30T11:29:07;2.03;;;0.73;;
25123;SDS011;13104;51.030;4.686;2024-01-30T11:31:34;0.60;;;0.60;;
25123;SDS011;13104;51.030;4.686;2024-01-30T11:34:00;1.48;;;0.60;;
25123;SDS011;13104;51.030;4.686;2024-01-30T11:36:27;0.60;;;0.60;;
25123;SDS011;13104;51.030;4.686;2024-01-30T11:38:54;0.93;;;0.90;;
25123;SDS011;13104;51.030;4.686;2024-01-30T11:41:20;0.75;;;0.75;;
25123;SDS011;13104;51.030;4.686;2024-01-30T11:43:51;0.82;;;0.63;;
25123;SDS011;13104;51.030;4.686;2024-01-30T11:46:18;1.23;;;0.70;;
25123;SDS011;13104;51.030;4.686;2024-01-30T11:48:44;0.40;;;0.40;;
25123;SDS011;13104;51.030;4.686;2024-01-30T11:51:11;0.60;;;0.60;;
25123;SDS011;13104;51.030;4.686;2024-01-30T11:53:37;1.98;;;0.65;;
25123;SDS011;13104;51.030;4.686;2024-01-30T11:56:05;3.97;;;0.70;;
25123;SDS011;13104;51.030;4.686;2024-01-30T11:58:33;0.52;;;0.52;;
25123;SDS011;13104;51.030;4.686;2024-01-30T12:00:59;0.40;;;0.40;;
25123;SDS011;13104;51.030;4.686;2024-01-30T12:03:25;0.50;;;0.50;;
25123;SDS011;13104;51.030;4.686;2024-01-30T12:05:55;0.50;;;0.50;;
25123;SDS011;13104;51.030;4.686;2024-01-30T12:08:22;0.57;;;0.57;;
25123;SDS011;13104;51.030;4.686;2024-01-30T12:10:55;0.30;;;0.30;;
25123;SDS011;13104;51.030;4.686;2024-01-30T12:13:21;0.38;;;0.38;;
25123;SDS011;13104;51.030;4.686;2024-01-30T12:15:48;0.47;;;0.40;;
25123;SDS011;13104;51.030;4.686;2024-01-30T12:18:14;0.30;;;0.30;;
25123;SDS011;13104;51.030;4.686;2024-01-30T12:20:40;0.50;;;0.50;;
25123;SDS011;13104;51.030;4.686;2024-01-30T12:23:06;0.40;;;0.40;;
25123;SDS011;13104;51.030;4.686;2024-01-30T12:25:32;0.30;;;0.30;;
25123;SDS011;13104;51.030;4.686;2024-01-30T12:27:58;0.63;;;0.50;;
25123;SDS011;13104;51.030;4.686;2024-01-30T12:30:24;0.40;;;0.40;;
25123;SDS011;13104;51.030;4.686;2024-01-30T12:32:50;0.20;;;0.20;;
25123;SDS011;13104;51.030;4.686;2024-01-30T12:35:17;0.55;;;0.55;;
25123;SDS011;13104;51.030;4.686;2024-01-30T12:37:44;0.45;;;0.45;;
25123;SDS011;13104;51.030;4.686;2024-01-30T12:40:11;0.35;;;0.35;;
25123;SDS011;13104;51.030;4.686;2024-01-30T12:42:39;0.40;;;0.40;;
25123;SDS011;13104;51.030;4.686;2024-01-30T12:45:07;0.30;;;0.30;;
25123;SDS011;13104;51.030;4.686;2024-01-30T12:47:33;0.63;;;0.40;;
25123;SDS011;13104;51.030;4.686;2024-01-30T12:49:59;0.30;;;0.30;;
25123;SDS011;13104;51.030;4.686;2024-01-30T12:52:25;0.40;;;0.40;;
25123;SDS011;13104;51.030;4.686;2024-01-30T12:54:51;0.80;;;0.50;;
25123;SDS011;13104;51.030;4.686;2024-01-30T12:57:18;0.30;;;0.30;;
25123;SDS011;13104;51.030;4.686;2024-01-30T12:59:44;0.45;;;0.45;;
25123;SDS011;13104;51.030;4.686;2024-01-30T13:02:11;0.50;;;0.50;;
25123;SDS011;13104;51.030;4.686;2024-01-30T13:04:37;1.17;;;0.43;;
25123;SDS011;13104;51.030;4.686;2024-01-30T13:07:04;3.22;;;0.80;;
25123;SDS011;13104;51.030;4.686;2024-01-30T13:09:30;0.47;;;0.47;;
25123;SDS011;13104;51.030;4.686;2024-01-30T13:11:59;0.38;;;0.38;;
25123;SDS011;13104;51.030;4.686;2024-01-30T13:14:25;1.55;;;0.52;;
25123;SDS011;13104;51.030;4.686;2024-01-30T13:16:51;0.93;;;0.68;;
25123;SDS011;13104;51.030;4.686;2024-01-30T13:19:17;0.55;;;0.50;;
25123;SDS011;13104;51.030;4.686;2024-01-30T13:21:44;0.43;;;0.43;;
25123;SDS011;13104;51.030;4.686;2024-01-30T13:24:10;0.50;;;0.50;;
25123;SDS011;13104;51.030;4.686;2024-01-30T13:26:36;1.10;;;0.45;;
25123;SDS011;13104;51.030;4.686;2024-01-30T13:29:02;0.57;;;0.57;;
25123;SDS011;13104;51.030;4.686;2024-01-30T13:31:28;0.47;;;0.47;;
25123;SDS011;13104;51.030;4.686;2024-01-30T13:33:55;2.28;;;0.57;;
25123;SDS011;13104;51.030;4.686;2024-01-30T13:36:21;0.28;;;0.28;;
25123;SDS011;13104;51.030;4.686;2024-01-30T13:38:48;0.38;;;0.38;;
25123;SDS011;13104;51.030;4.686;2024-01-30T13:41:14;0.50;;;0.40;;
25123;SDS011;13104;51.030;4.686;2024-01-30T13:43:41;0.60;;;0.52;;
25123;SDS011;13104;51.030;4.686;2024-01-30T13:46:07;0.40;;;0.40;;
25123;SDS011;13104;51.030;4.686;2024-01-30T13:48:33;0.57;;;0.52;;
25123;SDS011;13104;51.030;4.686;2024-01-30T13:50:59;0.95;;;0.60;;
25123;SDS011;13104;51.030;4.686;2024-01-30T13:53:26;0.30;;;0.30;;
25123;SDS011;13104;51.030;4.686;2024-01-30T13:55:52;0.43;;;0.43;;
25123;SDS011;13104;51.030;4.686;2024-01-30T13:58:18;1.02;;;0.50;;
25123;SDS011;13104;51.030;4.686;2024-01-30T14:00:44;2.05;;;0.60;;
25123;SDS011;13104;51.030;4.686;2024-01-30T14:03:10;0.60;;;0.60;;
25123;SDS011;13104;51.030;4.686;2024-01-30T14:05:36;1.85;;;0.70;;
25123;SDS011;13104;51.030;4.686;2024-01-30T14:08:03;4.68;;;0.85;;
25123;SDS011;13104;51.030;4.686;2024-01-30T14:10:30;0.55;;;0.52;;
25123;SDS011;13104;51.030;4.686;2024-01-30T14:12:56;0.50;;;0.50;;
25123;SDS011;13104;51.030;4.686;2024-01-30T14:15:23;3.75;;;0.55;;
25123;SDS011;13104;51.030;4.686;2024-01-30T14:17:49;0.43;;;0.40;;
25123;SDS011;13104;51.030;4.686;2024-01-30T14:20:15;0.50;;;0.50;;
25123;SDS011;13104;51.030;4.686;2024-01-30T14:22:42;0.45;;;0.43;;
25123;SDS011;13104;51.030;4.686;2024-01-30T14:25:08;0.90;;;0.70;;
25123;SDS011;13104;51.030;4.686;2024-01-30T14:27:35;0.77;;;0.52;;
25123;SDS011;13104;51.030;4.686;2024-01-30T14:30:01;0.93;;;0.73;;
25123;SDS011;13104;51.030;4.686;2024-01-30T14:32:28;0.50;;;0.50;;
25123;SDS011;13104;51.030;4.686;2024-01-30T14:34:54;0.70;;;0.45;;
25123;SDS011;13104;51.030;4.686;2024-01-30T14:37:21;0.50;;;0.43;;
25123;SDS011;13104;51.030;4.686;2024-01-30T14:39:48;0.40;;;0.40;;
25123;SDS011;13104;51.030;4.686;2024-01-30T14:42:14;1.13;;;0.60;;
25123;SDS011;13104;51.030;4.686;2024-01-30T14:44:41;0.43;;;0.43;;
25123;SDS011;13104;51.030;4.686;2024-01-30T14:47:07;0.43;;;0.43;;